AirNav   ProFlight Series 2 Aviation Headset
 
 1074 users online  

25PS Primrose Heliport
Minersville, Pennsylvania, USA

GOING TO MINERSVILLE?


FAA INFORMATION EFFECTIVE 18 JUNE 2020

Location

FAA Identifier: 25PS
Lat/Long: 40-41-21.2800N 076-16-46.5800W
40-41.354667N 076-16.776333W
40.6892444,-76.2796056
(estimated)
Elevation: 953 ft. / 290 m (estimated)
Variation: 12W (2020)
From city: 1 mile W of MINERSVILLE, PA
Time zone: UTC -4 (UTC -5 during Standard Time)
Zip code: 17954

Heliport Operations

Heliport use: Private use. Permission required prior to landing
Activation date: 04/2010
Control tower: no
ARTCC: NEW YORK CENTER
FSS: WILLIAMSPORT FLIGHT SERVICE STATION
Attendance: UNATNDD
Wind indicator: lighted
Segmented circle: no
Lights: ACTVT PERIMETER LGTS 5 CLICKS - 123.025
Beacon: white-green-yellow (heliport)
ACTVT BCN 8 CLICKS - 123.025

Heliport Communications

HARRISBURG APPROACH: 118.25
HARRISBURG DEPARTURE: 118.25
WX AWOS-3 at ZER (4 nm W): 127.575 (570-544-2778)
WX AWOS-3 at N79 (15 nm NW): 119.175 (570-672-0389)

Nearby radio navigation aids

VOR radial/distance  VOR name  Freq  Var
RAVr072/16.7RAVINE VORTAC114.6011W
MIPr148/26.6MILTON VORTAC109.2009W
ETXr292/27.9EAST TEXAS VOR/DME110.2009W
SEGr111/28.1SELINSGROVE VOR/DME110.4008W
LRPr010/34.2LANCASTER VOR/DME117.3009W
FJCr277/37.6ALLENTOWN VORTAC117.5010W

 
NDB name  Hdg/Dist  Freq  Var  ID
BELLGROVE049/19.732810WBZJ -... --.. .---

Heliport Services

Runway Information

Helipad H1

Dimensions: 80 x 80 ft. / 24 x 24 m
Surface: concrete, in good condition
Runway edge lights: PERI
Latitude: 40-41.354667N
Longitude: 076-16.776333W
Elevation: 953.0 ft.
Traffic pattern: leftleft
Markings: basic, in fair condition

Heliport Ownership and Management from official FAA records

Ownership: Privately-owned
Owner: GOOD WILL FIRE CO. NO.1
25 N ST
MINERSVILLE, PA 17954
Phone 570-544-6099
Manager: JOSEPH KUTZA, HANGAR OPS
25 N ST
MINERSVILLE, PA 17954
Phone 570-544-3821
CTC HANGAR OPS 570-544-3821 FOR INFO & ASSISTANCE.

Heliport Operational Statistics

Aircraft based on the field: 1
Helicopters: 1
    

Additional Remarks

FATO 65 FT X 70 FT, MARKED.
FOR CD CTC HARRISBURG APCH AT 800-932-0712.

Instrument Procedures

There are no published instrument procedures at 25PS.

Some nearby airports with instrument procedures:

KZER - Schuylkill County/Joe Zerbey Airport (4 nm W)
74N - Bendigo Airport (15 nm SW)
N79 - Northumberland County Airport (15 nm NW)
N13 - Bloomsburg Municipal Airport (20 nm N)
KMUI - Muir Army Airfield (Fort Indiantown Gap) (20 nm SW)
 
Loc | Ops | Rwys | IFR | FBO | Links
Com | Nav | Svcs | Stats | Notes
Aerial photo
No photo
 
Sectional chart

 
Airport distance calculator
Flying to Primrose Heliport? Find the distance to fly.

From to 25PS

Sunrise and sunset
Times for 12-Jul-2020
 Local
(UTC-4)
 Zulu
(UTC)
Morning civil twilight05:1409:14
Sunrise05:4609:46
Sunset20:3500:35
Evening civil twilight21:0801:08

Current date and time
Zulu (UTC)  12-Jul-2020 19:40:59
Local (UTC-4)  12-Jul-2020 15:40:59
 
METAR
KMUI 
21nm SW 
121856Z AUTO 00000KT 10SM SCT060 BKN150 29/18 A2974 RMK AO2 SLP071 T02930181
KHZL 
22nm NE 
121917Z AUTO 00000KT 10SM SCT100 BKN120 26/15 A2982 RMK AO2
KRDG 
24nm SE 
121854Z 20007KT 10SM BKN050 31/18 A2973 RMK AO2 SLP069 T03110178
K22N 
25nm E 
121924Z AUTO 00000KT 10SM SCT050 SCT060 BKN100 28/18 A2974 RMK AO2
KSEG 
28nm W 
121903Z AUTO 12005KT 10SM SCT036 BKN060 OVC110 23/19 A2975 RMK AO2 RAE01 P0000 T02280189
KLNS 
34nm S 
121853Z 19008KT 10SM BKN065 30/17 A2975 RMK AO2 SLP070 T03000172
KXLL 
37nm E 
121915Z AUTO 22008KT 10SM CLR 30/18 A2975 RMK AO2
KMDT 
37nm SW 
121856Z 20007KT 10SM FEW040 SCT060 BKN085 32/16 A2973 RMK AO2 SLP065 T03170156
KABE 
38nm E 
121851Z 23011G18KT 10SM CLR 30/17 A2974 RMK AO2 SLP068 T03000172
KCXY 
38nm SW 
121856Z 25008KT 10SM SCT065 BKN090 32/15 A2973 RMK AO2 SLP066 T03170150
TAF
KRDG 
24nm SE 
121726Z 1218/1318 26008KT P6SM SCT050 BKN120 FM121900 24008KT P6SM VCSH BKN040 FM122100 24006KT P6SM -SHRA VCTS BKN040CB FM130000 VRB03KT P6SM -SHRA BKN040 FM130600 VRB02KT P6SM BKN060 FM131300 30007KT P6SM BKN200
NOTAMs
Click for the latest NOTAMs
NOTAMs are issued by the DoD/FAA and will open in a separate window not controlled by AirNav.

 

 
 

Would you like to see your business listed on this page?

 If your business provides an interesting product or service to pilots, flight crews, aircraft, or users of the Primrose Heliport, you should consider listing it here.  To start the listing process, click on the button below
 
Add a business
 

Other Pages about Primrose Heliport

Update a link
 
Copyright © AirNav, LLC. All rights reserved. Privacy Policy  Contact